Time;durP1;ratioP1;P1;durP2;ratioP2;P2;SDS_P1;SDS_P2;PMS_P1;PMS_P2;Temp;Humidity;BMP_temperature;BMP_pressure;BME280_temperature;BME280_humidity;BME280_pressure;Samples;Min_cycle;Max_cycle;Signal;HPM_P1;HPM_P2
2021/09/28 00:00:39;0.00;0.00;0.62;0.00;0.00;0.62;1.77;1.10;;;27.80;36.90;;;;;;2253964;61;20364;-58
2021/09/28 00:03:23;0.00;0.00;0.62;0.00;0.00;0.62;2.10;1.00;;;27.70;36.80;;;;;;2254296;61;20364;-58
2021/09/28 00:06:07;0.00;0.00;0.62;0.00;0.00;0.62;1.80;0.97;;;27.70;36.80;;;;;;2255175;61;20415;-57
2021/09/28 00:08:52;0.00;0.00;0.62;0.00;0.00;0.62;2.07;1.10;;;27.70;36.80;;;;;;2254292;61;20364;-60
2021/09/28 00:11:36;0.00;0.00;0.62;0.00;0.00;0.62;1.50;1.00;;;27.70;36.90;;;;;;2254031;61;20380;-58
2021/09/28 00:14:21;0.00;0.00;0.62;0.00;0.00;0.62;1.80;1.20;;;27.70;36.80;;;;;;2252761;61;20464;-59
2021/09/28 00:17:08;0.00;0.00;0.62;0.00;0.00;0.62;1.70;0.87;;;27.70;36.80;;;;;;2254351;61;20723;-55
2021/09/28 00:19:53;0.00;0.00;0.62;0.00;0.00;0.62;1.93;1.10;;;27.70;36.80;;;;;;2254038;61;20436;-57
2021/09/28 00:22:38;0.00;0.00;0.62;0.00;0.00;0.62;2.27;0.93;;;27.70;36.80;;;;;;2253773;61;20363;-61
2021/09/28 00:25:23;0.00;0.00;0.62;0.00;0.00;0.62;2.20;1.00;;;27.70;36.80;;;;;;2254116;61;20431;-58
2021/09/28 00:28:08;0.00;0.00;0.62;0.00;0.00;0.62;2.80;1.13;;;27.70;36.80;;;;;;2252887;61;20359;-56
2021/09/28 00:30:52;0.00;0.00;0.62;0.00;0.00;0.62;1.50;0.90;;;27.70;36.90;;;;;;2254171;61;20359;-55
2021/09/28 00:33:38;0.00;0.00;0.62;0.00;0.00;0.62;1.80;1.00;;;27.70;36.90;;;;;;2254210;61;20745;-54
2021/09/28 00:36:23;0.00;0.00;0.62;0.00;0.00;0.62;2.23;1.30;;;27.70;36.90;;;;;;2252886;61;20372;-55
2021/09/28 00:39:08;0.00;0.00;0.62;0.00;0.00;0.62;2.27;1.00;;;27.70;36.90;;;;;;2254227;61;20360;-60
2021/09/28 00:41:52;0.00;0.00;0.62;0.00;0.00;0.62;1.60;0.90;;;27.70;36.90;;;;;;2254138;61;20699;-59
2021/09/28 00:44:41;0.00;0.00;0.62;0.00;0.00;0.62;3.63;1.20;;;27.70;36.90;;;;;;2253127;61;20416;-59
2021/09/28 00:47:26;0.00;0.00;0.62;0.00;0.00;0.62;2.73;1.10;;;27.70;37.00;;;;;;2254190;61;20380;-59
2021/09/28 00:50:13;0.00;0.00;0.62;0.00;0.00;0.62;1.40;0.80;;;27.70;37.00;;;;;;2252920;61;20364;-58
2021/09/28 00:52:58;0.00;0.00;0.62;0.00;0.00;0.62;1.83;0.90;;;27.70;37.00;;;;;;2254002;61;20646;-60
2021/09/28 00:55:42;0.00;0.00;0.62;0.00;0.00;0.62;2.83;1.20;;;27.70;37.00;;;;;;2254106;61;20415;-59
2021/09/28 00:58:27;0.00;0.00;0.62;0.00;0.00;0.62;1.80;1.00;;;27.60;36.90;;;;;;2252892;61;20591;-56
2021/09/28 01:01:13;0.00;0.00;0.62;0.00;0.00;0.62;2.43;1.30;;;27.60;36.90;;;;;;2253924;61;20360;-55
2021/09/28 01:03:58;0.00;0.00;0.62;0.00;0.00;0.62;3.30;1.10;;;27.60;36.90;;;;;;2253983;61;20599;-57
2021/09/28 01:06:45;0.00;0.00;0.62;0.00;0.00;0.62;1.53;1.00;;;27.60;36.90;;;;;;2252054;61;20703;-56
2021/09/28 01:09:31;0.00;0.00;0.62;0.00;0.00;0.62;1.60;1.00;;;27.60;36.90;;;;;;2250033;61;20732;-58
2021/09/28 01:12:15;0.00;0.00;0.62;0.00;0.00;0.62;2.70;1.30;;;27.60;36.90;;;;;;2249072;61;20388;-59
2021/09/28 01:15:00;0.00;0.00;0.62;0.00;0.00;0.62;2.03;1.20;;;27.70;37.00;;;;;;2249906;61;20461;-58
2021/09/28 01:17:44;0.00;0.00;0.62;0.00;0.00;0.62;2.10;1.07;;;27.60;36.90;;;;;;2250090;61;20368;-59
2021/09/28 01:20:29;0.00;0.00;0.62;0.00;0.00;0.62;1.50;0.80;;;27.60;36.90;;;;;;2248700;61;20368;-56
2021/09/28 01:23:15;0.00;0.00;0.62;0.00;0.00;0.62;2.80;1.20;;;27.60;36.90;;;;;;2249992;61;20600;-58
2021/09/28 01:25:59;0.00;0.00;0.62;0.00;0.00;0.62;2.40;1.30;;;27.60;36.90;;;;;;2249650;61;20496;-59
2021/09/28 01:28:44;0.00;0.00;0.62;0.00;0.00;0.62;2.90;1.00;;;27.60;36.90;;;;;;2248702;61;20423;-57
2021/09/28 01:31:29;0.00;0.00;0.62;0.00;0.00;0.62;2.70;1.13;;;27.60;36.80;;;;;;2249929;61;20383;-60
2021/09/28 01:34:16;0.00;0.00;0.62;0.00;0.00;0.62;2.80;1.13;;;27.60;36.90;;;;;;2248769;61;20791;-59
2021/09/28 01:37:00;0.00;0.00;0.62;0.00;0.00;0.62;1.40;0.80;;;27.60;36.80;;;;;;2249890;61;20453;-59
2021/09/28 01:39:46;0.00;0.00;0.62;0.00;0.00;0.62;3.43;1.27;;;27.60;36.80;;;;;;2250041;61;20407;-60
2021/09/28 01:42:31;0.00;0.00;0.62;0.00;0.00;0.62;1.57;0.87;;;27.60;36.80;;;;;;2248615;61;20588;-54
2021/09/28 01:45:16;0.00;0.00;0.62;0.00;0.00;0.62;6.83;1.40;;;27.60;36.80;;;;;;2249814;61;20425;-61
2021/09/28 01:48:01;0.00;0.00;0.62;0.00;0.00;0.62;1.87;1.00;;;27.50;36.70;;;;;;2250084;61;20379;-57
2021/09/28 01:50:45;0.00;0.00;0.62;0.00;0.00;0.62;2.97;1.33;;;27.60;36.80;;;;;;2248611;61;20635;-58
2021/09/28 01:53:30;0.00;0.00;0.62;0.00;0.00;0.62;2.27;1.10;;;27.50;36.60;;;;;;2249796;61;20468;-58
2021/09/28 01:56:19;0.00;0.00;0.62;0.00;0.00;0.62;1.90;1.00;;;27.50;36.60;;;;;;2249566;61;20809;-57
2021/09/28 01:59:06;0.00;0.00;0.62;0.00;0.00;0.62;3.60;1.67;;;27.50;36.60;;;;;;2249819;61;20368;-56
2021/09/28 02:01:50;0.00;0.00;0.62;0.00;0.00;0.62;1.80;1.00;;;27.50;36.60;;;;;;2249984;61;20400;-55
2021/09/28 02:04:35;0.00;0.00;0.62;0.00;0.00;0.62;2.47;1.30;;;27.50;36.60;;;;;;2248456;61;20387;-61
2021/09/28 02:07:19;0.00;0.00;0.62;0.00;0.00;0.62;3.73;1.23;;;27.40;36.50;;;;;;2251877;61;20368;-57
2021/09/28 02:10:05;0.00;0.00;0.62;0.00;0.00;0.62;2.00;1.17;;;27.50;36.60;;;;;;2253813;61;20399;-58
2021/09/28 02:12:51;0.00;0.00;0.62;0.00;0.00;0.62;2.27;1.07;;;27.40;36.50;;;;;;2252419;61;20395;-59
2021/09/28 02:15:35;0.00;0.00;0.62;0.00;0.00;0.62;1.80;1.00;;;27.50;36.60;;;;;;2253826;61;20758;-57
2021/09/28 02:18:20;0.00;0.00;0.62;0.00;0.00;0.62;4.50;1.10;;;27.40;36.50;;;;;;2253846;61;20406;-59
2021/09/28 02:21:04;0.00;0.00;0.62;0.00;0.00;0.62;1.80;1.30;;;27.40;36.50;;;;;;2253346;61;20375;-57
2021/09/28 02:23:49;0.00;0.00;0.62;0.00;0.00;0.62;3.97;1.23;;;27.40;36.40;;;;;;2253678;61;20410;-57
2021/09/28 02:26:33;0.00;0.00;0.62;0.00;0.00;0.62;1.77;1.10;;;27.40;36.50;;;;;;2252654;61;20576;-57
2021/09/28 02:29:19;0.00;0.00;0.62;0.00;0.00;0.62;1.60;1.00;;;27.40;36.40;;;;;;2253799;61;20410;-58
2021/09/28 02:32:05;0.00;0.00;0.62;0.00;0.00;0.62;1.70;1.17;;;27.40;36.50;;;;;;2253820;61;20383;-56
2021/09/28 02:34:50;0.00;0.00;0.62;0.00;0.00;0.62;2.47;1.00;;;27.40;36.50;;;;;;2252528;61;20407;-58
2021/09/28 02:37:34;0.00;0.00;0.62;0.00;0.00;0.62;2.30;1.07;;;27.40;36.50;;;;;;2253833;61;20415;-55
2021/09/28 02:40:19;0.00;0.00;0.62;0.00;0.00;0.62;2.00;1.20;;;27.40;36.50;;;;;;2253891;61;20360;-55
2021/09/28 02:43:04;0.00;0.00;0.62;0.00;0.00;0.62;2.33;1.20;;;27.40;36.50;;;;;;2252874;61;20362;-56
2021/09/28 02:45:50;0.00;0.00;0.62;0.00;0.00;0.62;2.30;1.23;;;27.30;36.40;;;;;;2253701;61;20388;-57
2021/09/28 02:48:35;0.00;0.00;0.62;0.00;0.00;0.62;2.67;1.10;;;27.40;36.50;;;;;;2255010;61;20368;-57
2021/09/28 02:51:20;0.00;0.00;0.62;0.00;0.00;0.62;3.20;1.00;;;27.30;36.40;;;;;;2253657;61;20423;-57
2021/09/28 02:54:04;0.00;0.00;0.62;0.00;0.00;0.62;2.60;1.23;;;27.30;36.40;;;;;;2253697;61;20692;-55
2021/09/28 02:56:49;0.00;0.00;0.62;0.00;0.00;0.62;2.10;1.13;;;27.30;36.40;;;;;;2252420;61;20363;-53
2021/09/28 02:59:34;0.00;0.00;0.62;0.00;0.00;0.62;1.93;1.17;;;27.30;36.40;;;;;;2253786;61;20451;-56
2021/09/28 03:02:20;0.00;0.00;0.62;0.00;0.00;0.62;2.07;0.93;;;27.30;36.40;;;;;;2253827;61;20371;-60
2021/09/28 03:05:06;0.00;0.00;0.62;0.00;0.00;0.62;2.50;1.10;;;27.30;36.30;;;;;;2252360;61;20524;-54
2021/09/28 03:07:50;0.00;0.00;0.62;0.00;0.00;0.62;2.13;1.13;;;27.30;36.30;;;;;;2250936;61;20411;-60
2021/09/28 03:10:36;0.00;0.00;0.62;0.00;0.00;0.62;2.27;1.00;;;27.30;36.30;;;;;;2248817;61;20712;-57
2021/09/28 03:13:21;0.00;0.00;0.62;0.00;0.00;0.62;1.93;1.00;;;27.30;36.30;;;;;;2249482;61;20389;-56
2021/09/28 03:16:06;0.00;0.00;0.62;0.00;0.00;0.62;1.87;1.00;;;27.30;36.30;;;;;;2249886;61;20365;-55
2021/09/28 03:18:52;0.00;0.00;0.62;0.00;0.00;0.62;3.33;1.40;;;27.20;36.30;;;;;;2248393;61;20441;-60
2021/09/28 03:21:36;0.00;0.00;0.62;0.00;0.00;0.62;1.93;1.00;;;27.30;36.30;;;;;;2249760;61;20580;-55
2021/09/28 03:24:21;0.00;0.00;0.62;0.00;0.00;0.62;1.77;0.90;;;27.20;36.20;;;;;;2249923;61;20428;-57
2021/09/28 03:27:06;0.00;0.00;0.62;0.00;0.00;0.62;1.80;0.87;;;27.20;36.20;;;;;;2249226;61;20650;-59
2021/09/28 03:29:50;0.00;0.00;0.62;0.00;0.00;0.62;2.47;1.33;;;27.20;36.30;;;;;;2250375;61;20379;-57
2021/09/28 03:32:36;0.00;0.00;0.62;0.00;0.00;0.62;2.20;1.00;;;27.20;36.30;;;;;;2249781;61;20388;-56
2021/09/28 03:35:22;0.00;0.00;0.62;0.00;0.00;0.62;2.10;0.90;;;27.20;36.30;;;;;;2250203;61;20591;-55
2021/09/28 03:38:06;0.00;0.00;0.62;0.00;0.00;0.62;2.30;1.17;;;27.20;36.30;;;;;;2250503;61;20724;-54
2021/09/28 03:40:51;0.00;0.00;0.62;0.00;0.00;0.62;1.60;1.00;;;27.20;36.30;;;;;;2249137;61;20364;-58
2021/09/28 03:43:36;0.00;0.00;0.62;0.00;0.00;0.62;2.00;1.10;;;27.20;36.30;;;;;;2250340;61;20384;-56
2021/09/28 03:46:20;0.00;0.00;0.62;0.00;0.00;0.62;1.87;1.10;;;27.20;36.30;;;;;;2250360;61;20400;-57
2021/09/28 03:49:05;0.00;0.00;0.62;0.00;0.00;0.62;2.73;1.20;;;27.20;36.30;;;;;;2248969;61;20363;-58
2021/09/28 03:51:51;0.00;0.00;0.62;0.00;0.00;0.62;2.00;1.50;;;27.10;36.20;;;;;;2250272;61;20420;-59
2021/09/28 03:54:35;0.00;0.00;0.62;0.00;0.00;0.62;1.60;0.90;;;27.20;36.30;;;;;;2249904;61;20380;-57
2021/09/28 03:57:20;0.00;0.00;0.62;0.00;0.00;0.62;2.30;1.10;;;27.20;36.30;;;;;;2249917;61;20424;-57
2021/09/28 04:00:06;0.00;0.00;0.62;0.00;0.00;0.62;1.93;1.20;;;27.20;36.30;;;;;;2250382;61;20365;-58
2021/09/28 04:02:51;0.00;0.00;0.62;0.00;0.00;0.62;1.80;0.90;;;27.10;36.30;;;;;;2248771;61;20584;-57
2021/09/28 04:05:36;0.00;0.00;0.62;0.00;0.00;0.62;3.70;1.17;;;27.10;36.30;;;;;;2250381;61;20400;-55
2021/09/28 04:08:22;0.00;0.00;0.62;0.00;0.00;0.62;2.20;1.20;;;27.10;36.40;;;;;;2253919;61;20437;-57
2021/09/28 04:11:07;0.00;0.00;0.62;0.00;0.00;0.62;2.13;1.20;;;27.10;36.40;;;;;;2252710;61;20367;-57
2021/09/28 04:13:51;0.00;0.00;0.62;0.00;0.00;0.62;1.50;0.90;;;27.10;36.40;;;;;;2254231;61;20419;-57
2021/09/28 04:16:36;0.00;0.00;0.62;0.00;0.00;0.62;2.63;1.20;;;27.10;36.40;;;;;;2254416;61;20396;-57
2021/09/28 04:19:21;0.00;0.00;0.62;0.00;0.00;0.62;2.17;1.10;;;27.10;36.40;;;;;;2253646;61;20364;-57
2021/09/28 04:22:07;0.00;0.00;0.62;0.00;0.00;0.62;2.70;1.50;;;27.10;36.40;;;;;;2254190;61;20360;-55
2021/09/28 04:24:54;0.00;0.00;0.62;0.00;0.00;0.62;2.03;1.13;;;27.10;36.40;;;;;;2252901;61;20399;-58
2021/09/28 04:27:41;0.00;0.00;0.62;0.00;0.00;0.62;2.80;0.90;;;27.10;36.40;;;;;;2259417;61;20459;-59
2021/09/28 04:30:26;0.00;0.00;0.62;0.00;0.00;0.62;1.50;0.90;;;27.00;36.30;;;;;;2254136;61;20387;-59
2021/09/28 04:33:10;0.00;0.00;0.62;0.00;0.00;0.62;1.97;1.00;;;27.00;36.30;;;;;;2252866;61;20431;-57
2021/09/28 04:35:55;0.00;0.00;0.62;0.00;0.00;0.62;1.70;1.03;;;27.00;36.30;;;;;;2253943;61;20359;-58
2021/09/28 04:38:40;0.00;0.00;0.62;0.00;0.00;0.62;3.20;1.40;;;27.00;36.20;;;;;;2254225;61;20359;-62
2021/09/28 04:41:26;0.00;0.00;0.62;0.00;0.00;0.62;2.07;1.00;;;27.00;36.20;;;;;;2253331;61;20406;-59
2021/09/28 04:44:10;0.00;0.00;0.62;0.00;0.00;0.62;1.90;1.07;;;27.00;36.20;;;;;;2253771;61;20795;-59
2021/09/28 04:46:55;0.00;0.00;0.62;0.00;0.00;0.62;1.33;0.87;;;27.00;36.30;;;;;;2253127;61;20367;-59
2021/09/28 04:49:39;0.00;0.00;0.62;0.00;0.00;0.62;2.00;1.00;;;27.00;36.30;;;;;;2254190;61;20360;-57
2021/09/28 04:52:24;0.00;0.00;0.62;0.00;0.00;0.62;1.63;1.30;;;27.00;36.30;;;;;;2254049;61;20423;-58
2021/09/28 04:55:09;0.00;0.00;0.62;0.00;0.00;0.62;2.80;1.10;;;27.00;36.30;;;;;;2252832;61;20784;-59
2021/09/28 04:57:55;0.00;0.00;0.62;0.00;0.00;0.62;1.53;0.97;;;27.00;36.30;;;;;;2254055;61;20383;-60
2021/09/28 05:00:40;0.00;0.00;0.62;0.00;0.00;0.62;1.97;1.33;;;27.00;36.30;;;;;;2254187;61;20764;-60
2021/09/28 05:03:24;0.00;0.00;0.62;0.00;0.00;0.62;2.20;1.33;;;26.90;36.20;;;;;;2252799;61;20406;-58
2021/09/28 05:06:12;0.00;0.00;0.62;0.00;0.00;0.62;2.37;1.17;;;27.00;36.20;;;;;;2254065;61;20359;-59
2021/09/28 05:08:56;0.00;0.00;0.62;0.00;0.00;0.62;2.60;1.47;;;26.90;36.10;;;;;;2253190;61;20419;-58
2021/09/28 05:11:41;0.00;0.00;0.62;0.00;0.00;0.62;1.57;1.13;;;26.90;36.20;;;;;;2253679;61;20363;-58
2021/09/28 05:14:27;0.00;0.00;0.62;0.00;0.00;0.62;2.80;1.70;;;26.90;36.20;;;;;;2254009;61;20414;-58
2021/09/28 05:17:11;0.00;0.00;0.62;0.00;0.00;0.62;1.90;1.20;;;26.90;36.20;;;;;;2252821;61;20434;-59
2021/09/28 05:19:56;0.00;0.00;0.62;0.00;0.00;0.62;1.80;1.00;;;26.90;36.30;;;;;;2253928;61;20399;-58
2021/09/28 05:22:40;0.00;0.00;0.62;0.00;0.00;0.62;2.80;1.47;;;26.90;36.30;;;;;;2252286;61;20451;-58
2021/09/28 05:25:27;0.00;0.00;0.62;0.00;0.00;0.62;2.13;1.50;;;26.90;36.30;;;;;;2252252;61;20395;-55
2021/09/28 05:28:11;0.00;0.00;0.62;0.00;0.00;0.62;3.53;1.60;;;26.90;36.30;;;;;;2253609;61;20465;-56
2021/09/28 05:30:58;0.00;0.00;0.62;0.00;0.00;0.62;2.80;1.57;;;26.90;36.30;;;;;;2253469;61;20359;-58
2021/09/28 05:33:42;0.00;0.00;0.62;0.00;0.00;0.62;1.97;1.50;;;26.90;36.30;;;;;;2253510;61;20391;-59
2021/09/28 05:36:27;0.00;0.00;0.62;0.00;0.00;0.62;2.40;1.40;;;26.90;36.30;;;;;;2254038;61;20403;-57
2021/09/28 05:39:12;0.00;0.00;0.62;0.00;0.00;0.62;2.80;1.63;;;26.80;36.30;;;;;;2252668;61;20711;-58
2021/09/28 05:41:56;0.00;0.00;0.62;0.00;0.00;0.62;3.10;1.97;;;26.90;37.00;;;;;;2253994;61;20764;-58
2021/09/28 05:44:41;0.00;0.00;0.62;0.00;0.00;0.62;1.70;1.30;;;26.80;36.20;;;;;;2253924;61;20378;-56
2021/09/28 05:47:26;0.00;0.00;0.62;0.00;0.00;0.62;2.17;1.70;;;26.80;36.20;;;;;;2252468;61;20363;-57
2021/09/28 05:50:11;0.00;0.00;0.62;0.00;0.00;0.62;3.90;2.33;;;26.90;36.10;;;;;;2253924;61;20440;-58
2021/09/28 05:52:56;0.00;0.00;0.62;0.00;0.00;0.62;2.93;2.00;;;26.80;35.90;;;;;;2253730;61;20383;-60
2021/09/28 05:55:41;0.00;0.00;0.62;0.00;0.00;0.62;3.47;1.70;;;26.80;35.90;;;;;;2253396;61;20674;-52
2021/09/28 05:58:26;0.00;0.00;0.62;0.00;0.00;0.62;3.30;1.70;;;26.80;36.00;;;;;;2250971;61;20379;-60
2021/09/28 06:01:11;0.00;0.00;0.62;0.00;0.00;0.62;4.60;1.87;;;26.70;36.00;;;;;;2252904;61;20367;-58
2021/09/28 06:03:56;0.00;0.00;0.62;0.00;0.00;0.62;3.20;1.60;;;26.70;36.20;;;;;;2253570;61;20418;-58
2021/09/28 06:06:41;0.00;0.00;0.62;0.00;0.00;0.62;4.47;2.37;;;26.70;36.40;;;;;;2253415;61;20364;-58
2021/09/28 06:09:26;0.00;0.00;0.62;0.00;0.00;0.62;2.67;1.80;;;26.70;36.50;;;;;;2252766;61;20787;-55
2021/09/28 06:12:11;0.00;0.00;0.62;0.00;0.00;0.62;4.17;1.60;;;26.70;36.60;;;;;;2253220;61;20850;-56
2021/09/28 06:14:56;0.00;0.00;0.62;0.00;0.00;0.62;3.00;1.80;;;26.70;36.70;;;;;;2253839;61;20387;-56
2021/09/28 06:17:41;0.00;0.00;0.62;0.00;0.00;0.62;4.20;2.20;;;26.70;36.80;;;;;;2252990;61;20363;-53
2021/09/28 06:20:27;0.00;0.00;0.62;0.00;0.00;0.62;3.93;2.27;;;26.70;36.80;;;;;;2253306;61;20419;-58
2021/09/28 06:23:11;0.00;0.00;0.62;0.00;0.00;0.62;3.10;1.50;;;26.70;36.90;;;;;;2252859;61;20380;-53
2021/09/28 06:25:56;0.00;0.00;0.62;0.00;0.00;0.62;2.47;1.77;;;26.70;36.90;;;;;;2253552;61;20487;-58
2021/09/28 06:28:40;0.00;0.00;0.62;0.00;0.00;0.62;2.53;2.00;;;26.70;36.90;;;;;;2253410;61;20769;-57
2021/09/28 06:31:25;0.00;0.00;0.62;0.00;0.00;0.62;3.90;1.80;;;26.80;37.00;;;;;;2252619;61;20363;-59
2021/09/28 06:34:10;0.00;0.00;0.62;0.00;0.00;0.62;2.37;1.83;;;26.80;37.00;;;;;;2253307;61;20387;-57
2021/09/28 06:36:57;0.00;0.00;0.62;0.00;0.00;0.62;3.30;1.90;;;26.80;37.00;;;;;;2253674;61;20406;-59
2021/09/28 06:39:42;0.00;0.00;0.62;0.00;0.00;0.62;2.50;1.90;;;26.80;37.00;;;;;;2252928;61;20372;-58
2021/09/28 06:42:27;0.00;0.00;0.62;0.00;0.00;0.62;3.23;1.90;;;26.80;37.00;;;;;;2253353;61;20360;-58
2021/09/28 06:45:12;0.00;0.00;0.62;0.00;0.00;0.62;3.10;2.10;;;26.80;37.00;;;;;;2253025;61;20619;-58
2021/09/28 06:47:57;0.00;0.00;0.62;0.00;0.00;0.62;2.87;1.87;;;26.80;37.00;;;;;;2253763;61;20411;-53
2021/09/28 06:50:42;0.00;0.00;0.62;0.00;0.00;0.62;2.77;2.13;;;26.80;37.00;;;;;;2253031;61;20586;-52
2021/09/28 06:53:27;0.00;0.00;0.62;0.00;0.00;0.62;2.80;2.10;;;26.80;36.90;;;;;;2252610;61;20427;-57
2021/09/28 06:56:13;0.00;0.00;0.62;0.00;0.00;0.62;3.93;2.10;;;26.80;36.90;;;;;;2253868;61;20380;-55
2021/09/28 06:58:58;0.00;0.00;0.62;0.00;0.00;0.62;2.33;1.90;;;26.80;36.90;;;;;;2253913;61;20590;-52
2021/09/28 07:01:43;0.00;0.00;0.62;0.00;0.00;0.62;2.53;2.00;;;26.80;36.80;;;;;;2253580;61;20407;-56
2021/09/28 07:04:28;0.00;0.00;0.62;0.00;0.00;0.62;2.50;1.80;;;26.80;36.80;;;;;;2253746;61;20394;-56
2021/09/28 07:07:12;0.00;0.00;0.62;0.00;0.00;0.62;3.30;2.07;;;26.80;36.80;;;;;;2254218;61;20727;-58
2021/09/28 07:09:58;0.00;0.00;0.62;0.00;0.00;0.62;3.00;2.40;;;26.80;36.80;;;;;;2254268;61;20407;-58
2021/09/28 07:12:42;0.00;0.00;0.62;0.00;0.00;0.62;3.40;2.10;;;26.80;36.70;;;;;;2253575;61;20391;-62
2021/09/28 07:15:29;0.00;0.00;0.62;0.00;0.00;0.62;2.93;2.17;;;26.80;36.70;;;;;;2255710;61;20383;-57
2021/09/28 07:18:13;0.00;0.00;0.62;0.00;0.00;0.62;5.73;2.70;;;26.80;36.60;;;;;;2254556;61;20371;-56
2021/09/28 07:20:58;0.00;0.00;0.62;0.00;0.00;0.62;3.00;2.27;;;26.80;36.60;;;;;;2254307;61;20363;-56
2021/09/28 07:23:43;0.00;0.00;0.62;0.00;0.00;0.62;2.30;1.77;;;26.80;36.50;;;;;;2253353;61;20383;-58
2021/09/28 07:26:29;0.00;0.00;0.62;0.00;0.00;0.62;2.60;1.80;;;26.80;36.50;;;;;;2253855;61;20428;-54
2021/09/28 07:29:13;0.00;0.00;0.62;0.00;0.00;0.62;3.50;2.93;;;26.80;36.50;;;;;;2254401;61;20928;-60
2021/09/28 07:31:58;0.00;0.00;0.62;0.00;0.00;0.62;5.30;3.03;;;26.80;36.50;;;;;;2253795;61;20618;-56
2021/09/28 07:34:44;0.00;0.00;0.62;0.00;0.00;0.62;3.77;2.43;;;26.80;36.50;;;;;;2253647;61;20607;-55
2021/09/28 07:37:29;0.00;0.00;0.62;0.00;0.00;0.62;3.50;2.20;;;26.80;36.40;;;;;;2253369;61;20396;-54
2021/09/28 07:40:16;0.00;0.00;0.62;0.00;0.00;0.62;3.97;2.90;;;26.80;36.30;;;;;;2254368;61;20363;-54
2021/09/28 07:43:02;0.00;0.00;0.62;0.00;0.00;0.62;3.40;2.20;;;26.80;36.20;;;;;;2253838;61;20360;-56
2021/09/28 07:45:47;0.00;0.00;0.62;0.00;0.00;0.62;2.70;2.13;;;26.70;36.10;;;;;;2253170;61;20727;-57
2021/09/28 07:48:32;0.00;0.00;0.62;0.00;0.00;0.62;3.37;2.53;;;26.70;36.10;;;;;;2253713;61;20735;-55
2021/09/28 07:51:16;0.00;0.00;0.62;0.00;0.00;0.62;2.87;2.50;;;26.70;36.10;;;;;;2254242;61;20387;-57
2021/09/28 07:54:01;0.00;0.00;0.62;0.00;0.00;0.62;2.67;2.27;;;26.70;36.10;;;;;;2252662;61;20493;-58
2021/09/28 07:56:46;0.00;0.00;0.62;0.00;0.00;0.62;4.83;2.60;;;26.70;36.10;;;;;;2254128;61;20711;-51
2021/09/28 07:59:32;0.00;0.00;0.62;0.00;0.00;0.62;6.53;2.73;;;26.70;36.20;;;;;;2253364;61;20626;-54
2021/09/28 08:02:19;0.00;0.00;0.62;0.00;0.00;0.62;3.67;2.10;;;26.70;36.10;;;;;;2253965;61;20360;-53
2021/09/28 08:05:05;0.00;0.00;0.62;0.00;0.00;0.62;4.73;3.40;;;26.70;36.10;;;;;;2254260;61;20763;-54
2021/09/28 08:07:50;0.00;0.00;0.62;0.00;0.00;0.62;3.57;3.20;;;26.70;36.10;;;;;;2252895;61;20363;-52
2021/09/28 08:10:34;0.00;0.00;0.62;0.00;0.00;0.62;4.03;2.80;;;26.70;36.10;;;;;;2254105;61;20747;-54
2021/09/28 08:13:19;0.00;0.00;0.62;0.00;0.00;0.62;4.90;3.80;;;26.70;36.10;;;;;;2254146;61;20387;-57
2021/09/28 08:16:05;0.00;0.00;0.62;0.00;0.00;0.62;4.57;3.53;;;26.70;36.10;;;;;;2253075;61;20432;-51
2021/09/28 08:18:49;0.00;0.00;0.62;0.00;0.00;0.62;5.70;4.03;;;26.70;36.00;;;;;;2254372;61;20487;-49
2021/09/28 08:21:34;0.00;0.00;0.62;0.00;0.00;0.62;4.17;3.37;;;26.70;36.00;;;;;;2253397;61;20707;-54
2021/09/28 08:24:19;0.00;0.00;0.62;0.00;0.00;0.62;4.13;3.60;;;26.70;36.00;;;;;;2253638;61;20419;-51
2021/09/28 08:30:09;0.00;0.00;0.62;0.00;0.00;0.62;3.87;3.47;;;26.80;35.90;;;;;;2252854;61;20824;-55
2021/09/28 08:32:55;0.00;0.00;0.62;0.00;0.00;0.62;5.43;3.73;;;26.70;35.90;;;;;;2254083;61;20407;-57
2021/09/28 08:35:40;0.00;0.00;0.62;0.00;0.00;0.62;4.70;3.40;;;26.80;36.00;;;;;;2254210;61;20368;-50
2021/09/28 08:38:25;0.00;0.00;0.62;0.00;0.00;0.62;4.57;3.77;;;26.80;36.10;;;;;;2253039;61;20398;-49
2021/09/28 08:41:15;0.00;0.00;0.62;0.00;0.00;0.62;6.00;3.63;;;26.80;36.10;;;;;;2254378;61;20444;-52
2021/09/28 08:43:59;0.00;0.00;0.62;0.00;0.00;0.62;4.67;3.87;;;26.80;36.00;;;;;;2253056;61;20399;-56
2021/09/28 08:46:47;0.00;0.00;0.62;0.00;0.00;0.62;4.27;3.60;;;26.80;36.00;;;;;;2253906;61;20400;-48
2021/09/28 08:49:33;0.00;0.00;0.62;0.00;0.00;0.62;4.90;3.93;;;26.80;36.00;;;;;;2254093;61;20817;-51
2021/09/28 08:52:17;0.00;0.00;0.62;0.00;0.00;0.62;5.07;4.20;;;26.90;36.00;;;;;;2252608;61;20402;-51
2021/09/28 08:55:01;0.00;0.00;0.62;0.00;0.00;0.62;5.17;4.17;;;26.90;36.00;;;;;;2254072;61;20395;-49
2021/09/28 08:57:46;0.00;0.00;0.62;0.00;0.00;0.62;6.00;4.10;;;26.90;35.90;;;;;;2254248;61;20399;-53
2021/09/28 09:00:30;0.00;0.00;0.62;0.00;0.00;0.62;5.90;3.83;;;26.90;35.90;;;;;;2253126;61;20477;-49
2021/09/28 09:03:27;0.00;0.00;0.62;0.00;0.00;0.62;4.63;4.23;;;26.90;35.80;;;;;;2253977;61;20407;-49
2021/09/28 09:06:14;0.00;0.00;0.62;0.00;0.00;0.62;4.80;4.27;;;27.00;35.90;;;;;;2253072;61;20584;-54
2021/09/28 09:09:02;0.00;0.00;0.62;0.00;0.00;0.62;4.77;3.80;;;27.00;35.90;;;;;;2254010;61;20391;-51
2021/09/28 09:11:49;0.00;0.00;0.62;0.00;0.00;0.62;4.23;3.83;;;27.00;35.90;;;;;;2254077;61;20348;-49
2021/09/28 09:14:33;0.00;0.00;0.62;0.00;0.00;0.62;4.90;4.13;;;27.00;35.80;;;;;;2252616;61;20403;-51
2021/09/28 09:17:25;0.00;0.00;0.62;0.00;0.00;0.62;5.43;4.60;;;27.00;35.90;;;;;;2254053;61;20744;-51
2021/09/28 09:20:34;0.00;0.00;0.62;0.00;0.00;0.62;5.93;4.87;;;27.00;35.80;;;;;;2254260;61;20436;-51
2021/09/28 09:23:28;0.00;0.00;0.62;0.00;0.00;0.62;4.90;4.40;;;27.00;35.70;;;;;;2253439;61;20387;-50
2021/09/28 09:26:16;0.00;0.00;0.62;0.00;0.00;0.62;4.67;3.90;;;27.00;35.70;;;;;;2254014;61;20372;-53
2021/09/28 09:29:01;0.00;0.00;0.62;0.00;0.00;0.62;5.47;4.90;;;27.10;35.70;;;;;;2252817;61;20356;-54
2021/09/28 09:31:54;0.00;0.00;0.62;0.00;0.00;0.62;6.47;4.67;;;27.10;35.70;;;;;;2253916;61;20412;-52
2021/09/28 09:34:38;0.00;0.00;0.62;0.00;0.00;0.62;5.67;5.00;;;27.10;35.60;;;;;;2253950;61;20445;-53
2021/09/28 09:37:36;0.00;0.00;0.62;0.00;0.00;0.62;5.80;5.20;;;27.10;35.60;;;;;;2252741;61;20387;-50
2021/09/28 09:40:35;0.00;0.00;0.62;0.00;0.00;0.62;4.70;4.17;;;27.10;35.60;;;;;;2254085;61;20383;-49
2021/09/28 09:43:30;0.00;0.00;0.62;0.00;0.00;0.62;5.13;4.63;;;27.20;35.60;;;;;;2252769;61;20364;-50
2021/09/28 09:46:18;0.00;0.00;0.62;0.00;0.00;0.62;5.93;4.90;;;27.20;35.60;;;;;;2253904;61;20762;-49
2021/09/28 09:49:06;0.00;0.00;0.62;0.00;0.00;0.62;5.83;4.77;;;27.20;35.60;;;;;;2253960;61;20384;-48
2021/09/28 09:51:54;0.00;0.00;0.62;0.00;0.00;0.62;4.67;4.27;;;27.20;35.60;;;;;;2252418;61;20403;-52
2021/09/28 09:54:40;0.00;0.00;0.62;0.00;0.00;0.62;4.80;4.23;;;27.20;35.50;;;;;;2253982;61;20624;-50
2021/09/28 09:57:26;0.00;0.00;0.62;0.00;0.00;0.62;5.83;5.33;;;27.20;35.50;;;;;;2253668;61;20571;-53
2021/09/28 10:00:13;0.00;0.00;0.62;0.00;0.00;0.62;5.43;4.93;;;27.30;35.50;;;;;;2253510;61;20739;-51
2021/09/28 10:02:57;0.00;0.00;0.62;0.00;0.00;0.62;4.47;4.07;;;27.30;35.50;;;;;;2253869;61;20399;-50
2021/09/28 10:05:42;0.00;0.00;0.62;0.00;0.00;0.62;6.73;5.10;;;27.30;35.50;;;;;;2252872;61;20395;-50
2021/09/28 10:08:26;0.00;0.00;0.62;0.00;0.00;0.62;5.37;4.87;;;27.30;35.40;;;;;;2253882;61;20426;-50
2021/09/28 10:11:11;0.00;0.00;0.62;0.00;0.00;0.62;5.33;4.77;;;27.40;35.40;;;;;;2253708;61;20419;-50
2021/09/28 10:13:57;0.00;0.00;0.62;0.00;0.00;0.62;5.73;4.90;;;27.40;35.40;;;;;;2252389;61;20412;-50
2021/09/28 10:16:44;0.00;0.00;0.62;0.00;0.00;0.62;5.20;4.80;;;27.40;35.40;;;;;;2254013;61;20459;-53
2021/09/28 10:19:42;0.00;0.00;0.62;0.00;0.00;0.62;5.80;4.50;;;27.40;35.30;;;;;;2253842;61;20356;-50
2021/09/28 10:22:48;0.00;0.00;0.62;0.00;0.00;0.62;7.63;5.30;;;27.50;35.40;;;;;;2253472;61;20368;-53
2021/09/28 10:25:44;0.00;0.00;0.62;0.00;0.00;0.62;6.03;5.00;;;27.50;35.30;;;;;;2253583;61;20575;-50
2021/09/28 10:28:31;0.00;0.00;0.62;0.00;0.00;0.62;7.70;4.43;;;27.50;35.30;;;;;;2252596;61;20363;-51
2021/09/28 10:31:31;0.00;0.00;0.62;0.00;0.00;0.62;5.60;4.87;;;27.60;35.40;;;;;;2253862;61;20619;-53
2021/09/28 10:34:16;0.00;0.00;0.62;0.00;0.00;0.62;6.30;5.70;;;27.60;35.40;;;;;;2253732;61;20458;-52
2021/09/28 10:37:00;0.00;0.00;0.62;0.00;0.00;0.62;4.90;4.40;;;27.70;35.30;;;;;;2253219;61;20360;-51
2021/09/28 10:39:45;0.00;0.00;0.62;0.00;0.00;0.62;5.17;4.50;;;27.70;35.30;;;;;;2253740;61;20368;-48
2021/09/28 10:42:48;0.00;0.00;0.62;0.00;0.00;0.62;5.60;5.00;;;27.70;35.20;;;;;;2252839;61;20719;-50
2021/09/28 10:45:45;0.00;0.00;0.62;0.00;0.00;0.62;5.73;5.17;;;27.70;35.20;;;;;;2253771;61;20415;-50
2021/09/28 10:48:37;0.00;0.00;0.62;0.00;0.00;0.62;6.13;5.20;;;27.70;35.10;;;;;;2253789;61;20371;-52
2021/09/28 10:51:22;0.00;0.00;0.62;0.00;0.00;0.62;5.73;5.23;;;27.80;35.10;;;;;;2252518;61;20367;-50
2021/09/28 10:54:07;0.00;0.00;0.62;0.00;0.00;0.62;5.93;4.70;;;27.80;35.10;;;;;;2253496;61;20832;-52
2021/09/28 10:56:52;0.00;0.00;0.62;0.00;0.00;0.62;6.10;5.47;;;27.90;35.00;;;;;;2253294;61;20356;-52